Time;durP1;ratioP1;P1;durP2;ratioP2;P2;SDS_P1;SDS_P2;PMS_P1;PMS_P2;Temp;Humidity;BMP_temperature;BMP_pressure;BME280_temperature;BME280_humidity;BME280_pressure;Samples;Min_cycle;Max_cycle;Signal;HPM_P1;HPM_P2
2021/12/19 00:01:08;;;;;;;22.47;16.03;;;;;;;;;;5016505;28;20204;-64
2021/12/19 00:09:03;;;;;;;24.63;16.73;;;;;;;;;;5016122;28;20202;-64
2021/12/19 00:11:29;;;;;;;21.97;15.03;;;;;;;;;;5015078;28;20659;-65
2021/12/19 00:13:56;;;;;;;18.70;13.83;;;;;;;;;;5016097;28;20636;-63
2021/12/19 00:16:22;;;;;;;21.90;15.23;;;;;;;;;;5016128;28;20636;-64
2021/12/19 00:18:50;;;;;;;22.37;15.77;;;;;;;;;;5014939;28;20191;-64
2021/12/19 00:21:17;;;;;;;21.63;15.43;;;;;;;;;;5016528;28;20199;-64
2021/12/19 00:23:43;;;;;;;24.87;15.43;;;;;;;;;;5018648;28;20643;-65
2021/12/19 00:26:10;;;;;;;23.47;14.33;;;;;;;;;;5020203;28;20196;-65
2021/12/19 00:28:36;;;;;;;20.20;14.97;;;;;;;;;;5019467;28;20199;-64
2021/12/19 00:31:02;;;;;;;20.93;14.47;;;;;;;;;;5020097;28;20199;-63
2021/12/19 00:33:28;;;;;;;21.10;15.07;;;;;;;;;;5020231;28;20176;-65
2021/12/19 00:35:54;;;;;;;21.10;14.33;;;;;;;;;;5020718;28;20186;-64
2021/12/19 00:38:20;;;;;;;21.03;14.40;;;;;;;;;;5019999;28;20184;-65
2021/12/19 00:40:46;;;;;;;19.23;13.70;;;;;;;;;;5019978;28;20215;-64
2021/12/19 00:43:23;;;;;;;20.77;14.20;;;;;;;;;;5019653;28;20171;-65
2021/12/19 00:45:51;;;;;;;17.73;13.37;;;;;;;;;;5017998;28;20179;-65
2021/12/19 00:48:17;;;;;;;20.40;13.43;;;;;;;;;;5018719;28;20298;-67
2021/12/19 00:50:43;;;;;;;20.20;14.07;;;;;;;;;;5019251;28;20219;-64
2021/12/19 00:53:09;;;;;;;19.73;13.67;;;;;;;;;;5018614;28;20184;-64
2021/12/19 00:55:36;;;;;;;20.03;13.17;;;;;;;;;;5020033;28;20183;-64
2021/12/19 00:58:02;;;;;;;20.63;12.80;;;;;;;;;;5020130;28;20176;-64
2021/12/19 01:00:31;;;;;;;20.53;14.53;;;;;;;;;;5020296;28;20179;-65
2021/12/19 01:02:59;;;;;;;19.47;14.70;;;;;;;;;;5019672;28;20179;-64
2021/12/19 01:05:25;;;;;;;18.97;12.60;;;;;;;;;;5017822;28;20180;-65
2021/12/19 01:07:51;;;;;;;21.10;14.80;;;;;;;;;;5019462;28;20183;-63
2021/12/19 01:10:18;;;;;;;21.37;13.93;;;;;;;;;;5017517;28;20183;-65
2021/12/19 01:12:43;;;;;;;24.03;13.97;;;;;;;;;;5019890;28;20199;-66
2021/12/19 01:15:11;;;;;;;21.37;14.27;;;;;;;;;;5018575;28;20535;-65
2021/12/19 01:17:37;;;;;;;22.00;14.10;;;;;;;;;;5020020;28;20563;-64
2021/12/19 01:20:07;;;;;;;18.97;13.20;;;;;;;;;;5018757;28;20183;-64
2021/12/19 01:22:33;;;;;;;22.20;13.80;;;;;;;;;;5019094;28;20742;-64
2021/12/19 01:24:59;;;;;;;21.10;14.47;;;;;;;;;;5018485;28;20180;-64
2021/12/19 01:27:25;;;;;;;21.23;14.57;;;;;;;;;;5018422;28;20184;-65
2021/12/19 01:29:50;;;;;;;17.97;12.23;;;;;;;;;;5019298;28;20286;-65
2021/12/19 01:32:16;;;;;;;20.73;13.70;;;;;;;;;;5019136;28;20633;-65
2021/12/19 01:34:43;;;;;;;18.87;12.97;;;;;;;;;;5017950;28;20258;-64
2021/12/19 01:37:09;;;;;;;19.97;12.97;;;;;;;;;;5017960;28;20202;-65
2021/12/19 01:39:34;;;;;;;17.87;13.13;;;;;;;;;;5019125;28;20640;-65
2021/12/19 01:42:00;;;;;;;19.53;13.57;;;;;;;;;;5017608;28;20215;-65
2021/12/19 01:44:27;;;;;;;18.33;12.00;;;;;;;;;;5018861;28;20180;-62
2021/12/19 01:46:53;;;;;;;19.87;14.07;;;;;;;;;;5017895;28;20187;-64
2021/12/19 01:49:21;;;;;;;19.07;13.43;;;;;;;;;;5018229;28;20687;-64
2021/12/19 01:51:47;;;;;;;26.27;16.60;;;;;;;;;;5018608;28;20192;-65
2021/12/19 01:54:14;;;;;;;20.57;14.97;;;;;;;;;;5017943;28;20175;-63
2021/12/19 01:56:40;;;;;;;21.83;14.80;;;;;;;;;;5018986;28;20242;-65
2021/12/19 01:59:09;;;;;;;18.87;13.70;;;;;;;;;;5019072;28;20176;-64
2021/12/19 02:01:42;;;;;;;20.40;15.03;;;;;;;;;;5018696;28;20199;-65
2021/12/19 02:04:09;;;;;;;20.87;14.77;;;;;;;;;;5017406;28;20271;-64
2021/12/19 02:06:35;;;;;;;22.07;14.23;;;;;;;;;;5018603;28;20211;-65
2021/12/19 02:09:05;;;;;;;19.87;12.90;;;;;;;;;;5018395;28;20199;-65
2021/12/19 02:11:32;;;;;;;19.33;13.20;;;;;;;;;;5019145;28;20204;-64
2021/12/19 02:13:59;;;;;;;24.17;18.53;;;;;;;;;;5017305;28;20187;-63
2021/12/19 02:16:25;;;;;;;21.53;14.87;;;;;;;;;;5018720;28;20179;-63
2021/12/19 02:18:51;;;;;;;23.90;14.57;;;;;;;;;;5017038;28;20188;-65
2021/12/19 02:21:17;;;;;;;19.87;12.67;;;;;;;;;;5018221;28;20196;-62
2021/12/19 02:23:43;;;;;;;21.33;13.90;;;;;;;;;;5018171;28;20629;-65
2021/12/19 02:26:09;;;;;;;18.70;13.23;;;;;;;;;;5018006;28;20199;-65
2021/12/19 02:28:36;;;;;;;20.17;13.03;;;;;;;;;;5018817;28;20306;-65
2021/12/19 02:31:02;;;;;;;21.50;13.73;;;;;;;;;;5017342;28;20231;-62
2021/12/19 02:33:31;;;;;;;19.63;13.40;;;;;;;;;;5018075;28;20176;-64
2021/12/19 02:49:22;;;;;;;22.50;14.83;;;;;;;;;;5017469;28;20231;-64
2021/12/19 02:51:48;;;;;;;23.77;15.50;;;;;;;;;;5017546;28;20223;-65
2021/12/19 02:54:14;;;;;;;23.03;15.47;;;;;;;;;;5018179;28;20176;-64
2021/12/19 02:56:40;;;;;;;26.17;16.03;;;;;;;;;;5017100;28;20180;-65
2021/12/19 02:59:06;;;;;;;25.80;16.20;;;;;;;;;;5017272;28;20188;-65
2021/12/19 03:01:32;;;;;;;22.07;15.57;;;;;;;;;;5017070;28;20200;-64
2021/12/19 03:03:58;;;;;;;26.30;16.00;;;;;;;;;;5015823;28;20634;-65
2021/12/19 03:06:24;;;;;;;24.57;15.63;;;;;;;;;;5015303;28;20195;-65
2021/12/19 03:08:51;;;;;;;24.60;15.70;;;;;;;;;;5016403;28;20200;-64
2021/12/19 03:19:08;;;;;;;22.27;14.63;;;;;;;;;;5016928;28;20179;-62
2021/12/19 03:21:34;;;;;;;26.37;15.70;;;;;;;;;;5016526;28;20204;-64
2021/12/19 03:24:00;;;;;;;25.27;15.97;;;;;;;;;;5015177;28;20234;-64
2021/12/19 03:26:25;;;;;;;24.90;15.80;;;;;;;;;;5016476;28;20183;-65
2021/12/19 03:28:52;;;;;;;27.40;15.80;;;;;;;;;;5015425;28;20217;-64
2021/12/19 03:31:18;;;;;;;23.00;13.83;;;;;;;;;;5016659;28;20206;-64
2021/12/19 03:33:44;;;;;;;24.73;16.17;;;;;;;;;;5016008;28;20595;-64
2021/12/19 03:36:10;;;;;;;25.07;14.90;;;;;;;;;;5015976;28;20266;-63
2021/12/19 03:38:40;;;;;;;28.50;15.90;;;;;;;;;;5017105;28;20191;-65
2021/12/19 03:41:21;;;;;;;26.23;14.97;;;;;;;;;;5019920;28;20215;-65
2021/12/19 03:43:47;;;;;;;24.70;14.83;;;;;;;;;;5016896;28;20180;-65
2021/12/19 03:46:13;;;;;;;24.53;14.63;;;;;;;;;;5017049;28;20183;-65
2021/12/19 03:48:39;;;;;;;24.07;14.77;;;;;;;;;;5015264;28;20215;-66
2021/12/19 03:51:05;;;;;;;21.50;13.17;;;;;;;;;;5017632;28;20574;-68
2021/12/19 03:53:32;;;;;;;20.47;12.93;;;;;;;;;;5018528;28;20180;-64
2021/12/19 03:55:58;;;;;;;17.77;11.33;;;;;;;;;;5018147;28;20253;-63
2021/12/19 03:58:24;;;;;;;15.60;10.03;;;;;;;;;;5017965;28;20207;-64
2021/12/19 04:00:51;;;;;;;13.80;9.60;;;;;;;;;;5016684;28;20200;-64
2021/12/19 04:03:21;;;;;;;16.10;9.80;;;;;;;;;;5018934;28;20180;-64
2021/12/19 04:05:48;;;;;;;15.90;9.70;;;;;;;;;;5017908;28;20167;-63
2021/12/19 04:08:15;;;;;;;14.90;9.70;;;;;;;;;;5019548;28;20210;-71
2021/12/19 04:10:41;;;;;;;16.93;9.00;;;;;;;;;;5017837;28;20282;-63
2021/12/19 04:13:07;;;;;;;14.97;9.00;;;;;;;;;;5017661;28;20636;-63
2021/12/19 04:15:33;;;;;;;12.33;8.70;;;;;;;;;;5019525;28;20172;-63
2021/12/19 04:17:59;;;;;;;13.10;8.47;;;;;;;;;;5018205;28;20644;-64
2021/12/19 04:20:25;;;;;;;12.83;8.63;;;;;;;;;;5017843;28;20194;-63
2021/12/19 04:22:52;;;;;;;15.00;9.20;;;;;;;;;;5018113;28;20203;-63
2021/12/19 04:25:19;;;;;;;13.97;8.47;;;;;;;;;;5017717;28;20318;-63
2021/12/19 04:27:45;;;;;;;14.13;8.67;;;;;;;;;;5018625;28;20616;-66
2021/12/19 04:30:12;;;;;;;14.57;8.43;;;;;;;;;;5019410;28;20219;-64
2021/12/19 04:32:43;;;;;;;14.90;8.33;;;;;;;;;;5017427;28;20262;-63
2021/12/19 04:35:10;;;;;;;13.07;8.23;;;;;;;;;;5018852;28;20156;-63
2021/12/19 04:40:26;;;;;;;14.70;8.87;;;;;;;;;;5018812;28;20190;-65
2021/12/19 04:43:57;;;;;;;14.83;8.63;;;;;;;;;;5016848;28;20254;-63
2021/12/19 04:54:01;;;;;;;15.53;8.10;;;;;;;;;;5015928;28;20212;-64
2021/12/19 04:56:59;;;;;;;19.83;8.77;;;;;;;;;;5015303;28;20156;-64
2021/12/19 05:02:12;;;;;;;16.23;8.90;;;;;;;;;;5015850;28;20213;-62
2021/12/19 05:15:25;;;;;;;16.23;9.00;;;;;;;;;;5022581;28;20395;-65
2021/12/19 05:17:53;;;;;;;16.87;9.13;;;;;;;;;;5021603;28;20208;-65
2021/12/19 05:20:23;;;;;;;16.13;9.10;;;;;;;;;;5021511;28;20718;-64
2021/12/19 05:22:52;;;;;;;16.00;9.20;;;;;;;;;;5020288;28;20196;-65
2021/12/19 05:25:18;;;;;;;16.47;9.03;;;;;;;;;;5021400;28;20244;-63
2021/12/19 05:27:45;;;;;;;17.87;9.50;;;;;;;;;;5020952;28;20172;-63
2021/12/19 05:30:12;;;;;;;16.37;9.00;;;;;;;;;;5021574;28;20517;-65
2021/12/19 05:32:39;;;;;;;24.03;11.70;;;;;;;;;;5017888;28;20263;-68
2021/12/19 05:35:06;;;;;;;26.40;12.23;;;;;;;;;;5017703;28;20176;-64
2021/12/19 05:45:46;;;;;;;27.63;13.77;;;;;;;;;;5022770;28;20175;-65
2021/12/19 05:48:12;;;;;;;23.87;13.13;;;;;;;;;;5021660;28;20180;-66
2021/12/19 05:50:39;;;;;;;24.73;12.63;;;;;;;;;;5021571;28;20624;-65
2021/12/19 05:53:06;;;;;;;27.63;13.77;;;;;;;;;;5021691;28;20168;-64
2021/12/19 05:55:32;;;;;;;24.17;12.70;;;;;;;;;;5019912;28;20176;-64
2021/12/19 05:57:58;;;;;;;25.30;13.97;;;;;;;;;;5020803;28;20176;-64
2021/12/19 06:00:24;;;;;;;28.40;14.90;;;;;;;;;;5020864;28;20176;-63
2021/12/19 06:02:50;;;;;;;28.73;14.30;;;;;;;;;;5021317;28;20199;-64
2021/12/19 06:05:17;;;;;;;28.63;13.93;;;;;;;;;;5020489;28;20172;-65
2021/12/19 06:07:43;;;;;;;31.13;15.17;;;;;;;;;;5020378;28;20179;-63
2021/12/19 06:10:09;;;;;;;34.67;15.30;;;;;;;;;;5020732;28;20213;-62
2021/12/19 06:12:37;;;;;;;29.97;14.83;;;;;;;;;;5020046;28;20200;-63
2021/12/19 06:15:03;;;;;;;29.23;14.20;;;;;;;;;;5019452;28;20180;-65
2021/12/19 06:17:29;;;;;;;29.47;14.83;;;;;;;;;;5019239;28;20593;-63
2021/12/19 06:19:55;;;;;;;26.47;13.87;;;;;;;;;;5019663;28;20236;-70
2021/12/19 06:22:21;;;;;;;23.27;13.60;;;;;;;;;;5020685;28;20212;-64
2021/12/19 06:24:47;;;;;;;30.17;14.57;;;;;;;;;;5019819;28;20190;-67
2021/12/19 06:27:13;;;;;;;25.93;13.40;;;;;;;;;;5020523;28;20184;-64
2021/12/19 06:29:39;;;;;;;24.07;13.33;;;;;;;;;;5020297;28;20207;-63
2021/12/19 06:32:05;;;;;;;25.53;12.97;;;;;;;;;;5020057;28;20570;-63
2021/12/19 06:34:31;;;;;;;27.50;13.33;;;;;;;;;;5020095;28;20184;-64
2021/12/19 06:36:57;;;;;;;22.43;13.10;;;;;;;;;;5019350;28;20176;-63
2021/12/19 06:39:24;;;;;;;19.43;11.83;;;;;;;;;;5020713;28;20184;-62
2021/12/19 06:41:50;;;;;;;21.17;11.70;;;;;;;;;;5020019;28;20309;-62
2021/12/19 06:44:16;;;;;;;21.27;11.60;;;;;;;;;;5019003;28;20262;-64
2021/12/19 06:46:42;;;;;;;20.67;10.80;;;;;;;;;;5020638;28;20238;-63
2021/12/19 06:49:08;;;;;;;20.00;10.70;;;;;;;;;;5019321;28;20211;-63
2021/12/19 06:51:35;;;;;;;23.40;10.70;;;;;;;;;;5018917;28;20208;-63
2021/12/19 06:54:02;;;;;;;19.23;10.67;;;;;;;;;;5020048;28;20179;-63
2021/12/19 06:56:28;;;;;;;17.70;11.30;;;;;;;;;;5018806;28;20192;-65
2021/12/19 06:58:54;;;;;;;15.97;10.23;;;;;;;;;;5019657;28;20190;-65
2021/12/19 07:01:20;;;;;;;16.47;9.27;;;;;;;;;;5019472;28;20580;-64
2021/12/19 07:03:46;;;;;;;16.50;9.67;;;;;;;;;;5019714;28;20269;-63
2021/12/19 07:06:12;;;;;;;18.57;9.57;;;;;;;;;;5018438;28;20194;-62
2021/12/19 07:08:38;;;;;;;17.80;10.20;;;;;;;;;;5020025;28;20207;-62
2021/12/19 07:11:04;;;;;;;12.70;8.40;;;;;;;;;;5019389;28;20200;-63
2021/12/19 07:13:30;;;;;;;17.67;10.33;;;;;;;;;;5020122;28;20203;-65
2021/12/19 07:15:57;;;;;;;16.13;9.13;;;;;;;;;;5024803;23;20235;-64
2021/12/19 07:18:23;;;;;;;19.40;10.43;;;;;;;;;;4995156;28;20276;-63
2021/12/19 07:20:49;;;;;;;19.10;9.67;;;;;;;;;;4994013;28;20660;-63
2021/12/19 07:23:16;;;;;;;17.40;9.47;;;;;;;;;;4995430;28;20636;-61
2021/12/19 07:25:42;;;;;;;19.47;10.13;;;;;;;;;;4995376;28;20196;-61
2021/12/19 07:28:08;;;;;;;16.40;9.53;;;;;;;;;;4995086;28;20288;-62
2021/12/19 07:30:37;;;;;;;19.97;9.80;;;;;;;;;;4995332;28;20215;-62
2021/12/19 07:33:04;;;;;;;15.63;9.60;;;;;;;;;;4992787;28;20651;-61
2021/12/19 07:35:31;;;;;;;17.13;10.40;;;;;;;;;;4994904;28;20200;-62
2021/12/19 07:37:57;;;;;;;18.43;9.47;;;;;;;;;;4994784;28;20255;-62
2021/12/19 07:40:27;;;;;;;13.53;9.60;;;;;;;;;;4993497;28;20191;-62
2021/12/19 07:42:54;;;;;;;19.23;10.77;;;;;;;;;;4994737;28;20235;-61
2021/12/19 07:45:20;;;;;;;18.43;9.80;;;;;;;;;;4994607;28;20192;-62
2021/12/19 07:47:46;;;;;;;16.83;9.43;;;;;;;;;;4993300;28;20185;-61
2021/12/19 07:50:13;;;;;;;19.90;10.47;;;;;;;;;;4993149;28;20204;-62
2021/12/19 07:52:39;;;;;;;18.70;10.33;;;;;;;;;;4995097;28;20183;-62
2021/12/19 07:55:05;;;;;;;17.13;10.50;;;;;;;;;;4994613;28;20180;-62
2021/12/19 07:57:31;;;;;;;21.33;10.77;;;;;;;;;;4994464;28;20184;-62
2021/12/19 07:59:57;;;;;;;15.90;10.20;;;;;;;;;;4994672;28;20191;-62
2021/12/19 08:02:24;;;;;;;17.00;10.20;;;;;;;;;;4998338;28;20326;-64
2021/12/19 08:04:50;;;;;;;13.60;9.07;;;;;;;;;;5014340;28;20240;-64
2021/12/19 08:07:17;;;;;;;16.30;10.00;;;;;;;;;;5004660;28;20265;-62
2021/12/19 08:09:59;;;;;;;17.60;9.50;;;;;;;;;;4995690;28;20208;-64
2021/12/19 08:12:25;;;;;;;17.97;9.73;;;;;;;;;;4994266;28;20585;-62
2021/12/19 08:14:51;;;;;;;20.67;10.03;;;;;;;;;;4994864;28;20176;-62
2021/12/19 08:17:18;;;;;;;17.87;9.77;;;;;;;;;;4993448;28;20215;-62
2021/12/19 08:19:44;;;;;;;16.50;9.07;;;;;;;;;;4995060;28;20263;-62
2021/12/19 08:22:13;;;;;;;21.03;10.17;;;;;;;;;;4993166;28;20192;-61
2021/12/19 08:24:39;;;;;;;17.13;9.23;;;;;;;;;;4993281;28;20279;-62
2021/12/19 08:27:05;;;;;;;19.27;11.93;;;;;;;;;;4995471;28;20209;-62
2021/12/19 08:29:31;;;;;;;16.07;10.70;;;;;;;;;;4994243;28;20680;-62
2021/12/19 08:31:57;;;;;;;20.03;11.33;;;;;;;;;;4994732;28;20551;-62
2021/12/19 08:34:23;;;;;;;16.50;9.63;;;;;;;;;;4993163;28;20669;-61
2021/12/19 08:36:49;;;;;;;17.97;9.07;;;;;;;;;;4994615;28;20206;-62
2021/12/19 08:39:15;;;;;;;16.97;9.17;;;;;;;;;;4995444;28;20177;-62
2021/12/19 08:41:41;;;;;;;15.90;9.10;;;;;;;;;;4995021;28;20295;-62
2021/12/19 08:44:07;;;;;;;14.90;9.73;;;;;;;;;;4998271;28;20259;-62
2021/12/19 08:46:35;;;;;;;17.13;9.87;;;;;;;;;;5000659;28;20224;-61
2021/12/19 08:49:01;;;;;;;17.27;11.27;;;;;;;;;;5009800;28;20224;-64
2021/12/19 08:51:27;;;;;;;19.37;10.13;;;;;;;;;;5010683;28;20272;-62
2021/12/19 08:53:53;;;;;;;15.23;9.27;;;;;;;;;;5012323;28;20176;-61
2021/12/19 08:56:19;;;;;;;18.47;12.00;;;;;;;;;;5001631;28;20192;-62
2021/12/19 08:58:45;;;;;;;20.30;10.33;;;;;;;;;;4999645;28;20666;-62
2021/12/19 09:01:11;;;;;;;19.80;11.90;;;;;;;;;;4997826;28;20180;-62
2021/12/19 09:03:37;;;;;;;18.80;10.73;;;;;;;;;;4996971;28;20180;-62
2021/12/19 09:06:04;;;;;;;14.30;8.37;;;;;;;;;;4996636;28;20208;-62
2021/12/19 09:08:30;;;;;;;13.80;9.33;;;;;;;;;;4998641;28;20207;-62
2021/12/19 09:10:57;;;;;;;16.10;9.00;;;;;;;;;;4998192;28;20653;-62
2021/12/19 09:13:23;;;;;;;18.33;11.63;;;;;;;;;;4998389;28;20184;-62
2021/12/19 09:15:49;;;;;;;16.93;12.53;;;;;;;;;;4997994;28;20682;-62
2021/12/19 09:18:16;;;;;;;13.83;8.20;;;;;;;;;;4998237;28;20552;-62
2021/12/19 09:20:42;;;;;;;13.53;8.57;;;;;;;;;;4998653;28;20665;-62
2021/12/19 09:23:08;;;;;;;14.60;8.27;;;;;;;;;;4997638;28;20283;-62
2021/12/19 09:25:35;;;;;;;16.10;8.30;;;;;;;;;;4997227;28;20684;-62
2021/12/19 09:28:01;;;;;;;12.40;8.27;;;;;;;;;;4999033;28;20191;-62
2021/12/19 09:30:27;;;;;;;13.83;7.90;;;;;;;;;;5002652;28;20294;-62
2021/12/19 09:32:54;;;;;;;15.43;8.93;;;;;;;;;;5002745;28;20408;-62
2021/12/19 09:35:20;;;;;;;14.73;9.00;;;;;;;;;;5002700;28;20248;-63
2021/12/19 09:37:46;;;;;;;15.83;9.93;;;;;;;;;;5004361;28;20179;-63
2021/12/19 09:40:17;;;;;;;15.23;8.60;;;;;;;;;;5002504;28;20180;-63
2021/12/19 09:42:48;;;;;;;14.63;8.67;;;;;;;;;;4997358;28;20164;-63
2021/12/19 09:45:14;;;;;;;14.83;8.53;;;;;;;;;;4997087;28;20165;-62
2021/12/19 09:47:41;;;;;;;16.87;10.27;;;;;;;;;;4997009;28;20180;-63
2021/12/19 09:50:07;;;;;;;13.97;9.20;;;;;;;;;;4996718;28;20200;-63
2021/12/19 09:52:34;;;;;;;12.47;9.03;;;;;;;;;;4995556;28;20185;-63
2021/12/19 09:55:00;;;;;;;12.97;7.57;;;;;;;;;;4995952;28;20641;-63
2021/12/19 09:57:26;;;;;;;11.87;8.10;;;;;;;;;;4995385;28;20183;-63
2021/12/19 09:59:52;;;;;;;11.90;8.83;;;;;;;;;;4996813;28;20227;-64
2021/12/19 10:02:18;;;;;;;12.43;7.90;;;;;;;;;;4995502;28;20602;-63
2021/12/19 10:04:45;;;;;;;13.10;7.90;;;;;;;;;;4995274;28;20235;-63
2021/12/19 10:07:11;;;;;;;13.50;8.53;;;;;;;;;;4996487;28;20216;-63
2021/12/19 10:09:39;;;;;;;13.03;7.70;;;;;;;;;;4996436;28;20251;-63
2021/12/19 10:12:25;;;;;;;9.47;6.90;;;;;;;;;;4996387;28;20188;-64
2021/12/19 10:14:53;;;;;;;15.50;8.90;;;;;;;;;;4996605;28;20267;-63
2021/12/19 10:17:20;;;;;;;12.33;7.63;;;;;;;;;;4994839;28;20266;-64
2021/12/19 10:19:57;;;;;;;9.00;6.90;;;;;;;;;;4996382;28;20271;-63
2021/12/19 10:22:32;;;;;;;9.67;5.60;;;;;;;;;;4996258;28;20167;-63
2021/12/19 10:25:11;;;;;;;8.77;5.53;;;;;;;;;;4994853;28;20211;-64
2021/12/19 10:27:55;;;;;;;7.60;5.40;;;;;;;;;;4996559;28;20160;-63
2021/12/19 10:30:31;;;;;;;6.63;4.70;;;;;;;;;;4996159;28;20691;-63
2021/12/19 10:32:59;;;;;;;7.10;4.87;;;;;;;;;;4994757;28;20187;-64
2021/12/19 10:35:27;;;;;;;7.13;4.57;;;;;;;;;;4994729;28;20207;-64
2021/12/19 10:37:54;;;;;;;6.47;4.80;;;;;;;;;;4994672;28;20184;-64
2021/12/19 10:40:20;;;;;;;7.03;5.20;;;;;;;;;;4994766;28;20191;-64
2021/12/19 10:42:47;;;;;;;7.50;4.90;;;;;;;;;;4996085;28;20184;-63
2021/12/19 10:45:32;;;;;;;9.17;6.87;;;;;;;;;;4995924;28;20184;-63
2021/12/19 10:48:25;;;;;;;15.10;9.57;;;;;;;;;;4994619;28;20184;-63
2021/12/19 10:51:01;;;;;;;8.73;6.33;;;;;;;;;;4980486;28;20231;-64
2021/12/19 10:53:49;;;;;;;5.67;4.27;;;;;;;;;;4995573;28;20176;-63
2021/12/19 10:56:22;;;;;;;4.63;3.47;;;;;;;;;;4994260;28;20231;-63
2021/12/19 10:58:54;;;;;;;6.33;3.37;;;;;;;;;;4995855;28;20206;-64
2021/12/19 11:01:30;;;;;;;5.20;3.77;;;;;;;;;;5005250;28;20173;-63
2021/12/19 11:03:58;;;;;;;4.20;3.27;;;;;;;;;;5009915;28;20652;-63
2021/12/19 11:06:24;;;;;;;3.83;3.10;;;;;;;;;;4996980;28;20295;-62
2021/12/19 11:08:51;;;;;;;3.97;2.83;;;;;;;;;;4996949;28;20251;-63
2021/12/19 11:11:31;;;;;;;4.93;3.90;;;;;;;;;;4997218;28;20177;-63
2021/12/19 11:13:57;;;;;;;3.73;2.43;;;;;;;;;;4995168;28;20618;-62
2021/12/19 11:16:23;;;;;;;3.50;2.63;;;;;;;;;;4994987;28;20219;-62
2021/12/19 11:18:49;;;;;;;3.20;2.47;;;;;;;;;;4995971;28;20337;-63
2021/12/19 11:21:17;;;;;;;2.17;1.97;;;;;;;;;;4995847;28;20180;-63
2021/12/19 11:23:43;;;;;;;3.13;1.90;;;;;;;;;;4994132;28;20184;-63
2021/12/19 11:26:10;;;;;;;2.70;2.33;;;;;;;;;;4997300;28;20640;-63
2021/12/19 11:28:36;;;;;;;2.67;1.97;;;;;;;;;;4995245;28;20659;-63
2021/12/19 11:31:02;;;;;;;2.37;2.17;;;;;;;;;;4995543;28;20177;-63
2021/12/19 11:33:39;;;;;;;3.70;1.97;;;;;;;;;;4993924;28;20176;-63
2021/12/19 11:36:06;;;;;;;2.17;1.90;;;;;;;;;;4995007;28;20192;-63
2021/12/19 11:38:33;;;;;;;3.50;2.10;;;;;;;;;;4995283;28;20667;-63
2021/12/19 11:41:06;;;;;;;2.77;2.30;;;;;;;;;;4995335;28;20548;-62
2021/12/19 11:43:36;;;;;;;2.20;2.00;;;;;;;;;;4994438;28;20180;-63
2021/12/19 11:46:10;;;;;;;2.97;1.67;;;;;;;;;;4995943;28;20204;-63
2021/12/19 11:48:36;;;;;;;3.40;1.53;;;;;;;;;;4994367;28;20204;-62
2021/12/19 11:51:01;;;;;;;1.67;1.40;;;;;;;;;;4995497;28;20183;-63
2021/12/19 11:53:29;;;;;;;2.00;1.30;;;;;;;;;;4995470;28;20208;-63
2021/12/19 11:55:55;;;;;;;1.60;1.50;;;;;;;;;;4995186;28;20692;-63
2021/12/19 11:58:28;;;;;;;2.10;1.63;;;;;;;;;;4995950;28;20176;-63
2021/12/19 12:00:56;;;;;;;2.33;1.40;;;;;;;;;;4994807;28;20671;-63
2021/12/19 12:03:45;;;;;;;2.00;1.73;;;;;;;;;;4995446;28;20267;-63
2021/12/19 12:06:21;;;;;;;2.13;1.50;;;;;;;;;;4990855;28;20631;-63
2021/12/19 12:09:06;;;;;;;2.43;1.53;;;;;;;;;;4998666;28;20196;-63
2021/12/19 12:11:33;;;;;;;2.43;2.00;;;;;;;;;;5001069;28;20540;-63
2021/12/19 12:14:18;;;;;;;2.10;1.90;;;;;;;;;;5008387;28;20183;-63
2021/12/19 12:16:59;;;;;;;2.80;1.73;;;;;;;;;;5013347;28;20216;-63
2021/12/19 12:19:41;;;;;;;2.20;2.00;;;;;;;;;;5020547;28;20183;-63
2021/12/19 12:22:25;;;;;;;2.33;2.00;;;;;;;;;;5015605;28;20184;-64
2021/12/19 12:25:04;;;;;;;3.70;2.00;;;;;;;;;;5022227;28;20176;-63
2021/12/19 12:27:38;;;;;;;4.20;2.83;;;;;;;;;;5021604;28;20176;-64
2021/12/19 12:30:06;;;;;;;3.23;2.37;;;;;;;;;;5021450;28;20235;-63
2021/12/19 12:32:32;;;;;;;4.13;2.57;;;;;;;;;;5023421;28;20160;-63
2021/12/19 12:34:58;;;;;;;4.80;3.57;;;;;;;;;;5021433;28;20679;-63
2021/12/19 12:37:24;;;;;;;4.03;3.03;;;;;;;;;;5019547;28;20215;-63
2021/12/19 12:40:15;;;;;;;5.13;3.00;;;;;;;;;;5022582;28;20203;-63
2021/12/19 12:42:58;;;;;;;9.90;8.90;;;;;;;;;;5023340;28;20171;-63
2021/12/19 12:45:25;;;;;;;3.97;2.83;;;;;;;;;;5019844;28;20192;-64
2021/12/19 12:47:51;;;;;;;4.57;3.20;;;;;;;;;;5022344;28;20208;-63
2021/12/19 12:50:16;;;;;;;6.20;3.87;;;;;;;;;;5021893;28;20207;-63
2021/12/19 12:52:42;;;;;;;5.17;3.40;;;;;;;;;;5020613;28;20212;-63
2021/12/19 12:55:08;;;;;;;8.13;3.90;;;;;;;;;;5019787;28;20732;-63
2021/12/19 12:57:40;;;;;;;7.63;4.63;;;;;;;;;;5016249;28;20192;-63
2021/12/19 13:00:07;;;;;;;8.30;5.20;;;;;;;;;;5014873;28;20181;-65
2021/12/19 13:02:42;;;;;;;5.97;5.17;;;;;;;;;;5014434;28;20211;-64
2021/12/19 13:05:10;;;;;;;7.30;5.90;;;;;;;;;;5015836;28;20192;-64
2021/12/19 13:07:36;;;;;;;4.73;3.93;;;;;;;;;;5020189;28;20211;-64
2021/12/19 13:10:02;;;;;;;8.37;5.77;;;;;;;;;;5014782;28;20196;-64
2021/12/19 13:12:32;;;;;;;8.53;6.30;;;;;;;;;;5015374;28;20190;-64
2021/12/19 13:15:03;;;;;;;7.10;5.33;;;;;;;;;;5015935;28;20181;-64
2021/12/19 13:17:31;;;;;;;8.37;5.23;;;;;;;;;;5009030;28;20212;-65
2021/12/19 13:19:58;;;;;;;7.80;5.23;;;;;;;;;;5007854;28;20230;-64
2021/12/19 13:22:29;;;;;;;10.13;6.53;;;;;;;;;;5007600;28;20193;-64
2021/12/19 13:24:57;;;;;;;7.83;5.87;;;;;;;;;;5008194;28;20186;-64
2021/12/19 13:27:23;;;;;;;16.40;9.73;;;;;;;;;;5008310;28;20199;-64
2021/12/19 13:29:57;;;;;;;5.57;4.43;;;;;;;;;;5006323;28;20207;-64
2021/12/19 13:32:26;;;;;;;7.60;5.33;;;;;;;;;;5005335;28;20180;-64
2021/12/19 13:34:52;;;;;;;9.27;4.80;;;;;;;;;;5006431;28;20180;-65
2021/12/19 13:37:19;;;;;;;4.77;4.20;;;;;;;;;;5004063;28;20200;-64
2021/12/19 13:39:49;;;;;;;9.40;4.23;;;;;;;;;;5007192;28;20203;-64
2021/12/19 13:42:16;;;;;;;8.47;4.13;;;;;;;;;;5014307;28;20172;-64
2021/12/19 13:44:42;;;;;;;5.90;4.53;;;;;;;;;;5015561;28;20185;-64
2021/12/19 13:47:09;;;;;;;7.13;5.60;;;;;;;;;;5014219;28;20215;-63
2021/12/19 13:49:36;;;;;;;16.67;7.57;;;;;;;;;;5013507;28;20216;-63
2021/12/19 13:52:03;;;;;;;9.57;5.97;;;;;;;;;;5011984;28;20180;-64
2021/12/19 13:54:29;;;;;;;9.80;5.27;;;;;;;;;;5014721;28;20244;-64
2021/12/19 13:56:55;;;;;;;8.27;5.40;;;;;;;;;;5014350;28;20207;-64
2021/12/19 13:59:24;;;;;;;8.43;5.63;;;;;;;;;;5014808;28;20176;-63
2021/12/19 14:01:50;;;;;;;13.50;6.70;;;;;;;;;;5012940;28;20648;-64
2021/12/19 14:04:30;;;;;;;7.40;4.57;;;;;;;;;;5014759;28;20188;-63
2021/12/19 14:06:57;;;;;;;6.80;5.10;;;;;;;;;;5012187;28;20268;-63
2021/12/19 14:09:24;;;;;;;6.50;3.80;;;;;;;;;;5010652;28;20575;-63
2021/12/19 14:11:56;;;;;;;8.13;5.13;;;;;;;;;;5009618;28;20265;-63
2021/12/19 14:14:30;;;;;;;9.20;4.43;;;;;;;;;;5010923;28;20165;-63
2021/12/19 14:16:58;;;;;;;8.37;4.37;;;;;;;;;;5014988;28;20227;-63
2021/12/19 14:19:26;;;;;;;7.13;4.77;;;;;;;;;;5014790;28;20195;-63
2021/12/19 14:22:12;;;;;;;5.23;3.87;;;;;;;;;;5015481;28;20326;-62
2021/12/19 14:24:38;;;;;;;10.03;5.93;;;;;;;;;;5012851;28;20195;-63
2021/12/19 14:27:15;;;;;;;7.37;5.70;;;;;;;;;;5002883;28;20290;-62
2021/12/19 14:29:43;;;;;;;6.13;4.30;;;;;;;;;;5004510;28;20626;-63
2021/12/19 14:32:21;;;;;;;4.77;2.87;;;;;;;;;;5004828;28;20173;-62
2021/12/19 14:35:06;;;;;;;6.23;3.23;;;;;;;;;;5002220;28;20176;-64
2021/12/19 14:37:38;;;;;;;7.67;3.80;;;;;;;;;;4998599;28;20181;-62
2021/12/19 14:40:15;;;;;;;6.87;3.40;;;;;;;;;;4998094;28;20180;-62
2021/12/19 14:42:41;;;;;;;6.47;3.40;;;;;;;;;;4997134;28;20255;-63
2021/12/19 14:45:10;;;;;;;5.17;3.13;;;;;;;;;;4995325;28;20212;-62
2021/12/19 14:47:36;;;;;;;5.57;3.07;;;;;;;;;;4996924;28;20184;-63
2021/12/19 14:50:16;;;;;;;5.03;3.43;;;;;;;;;;4997870;28;20270;-63
2021/12/19 14:52:56;;;;;;;7.23;3.33;;;;;;;;;;5000017;28;20187;-62
2021/12/19 14:55:25;;;;;;;6.93;4.27;;;;;;;;;;4995470;28;20208;-62
2021/12/19 14:57:51;;;;;;;8.03;4.63;;;;;;;;;;4995714;28;20181;-62
2021/12/19 15:00:17;;;;;;;5.83;3.80;;;;;;;;;;4995658;28;20184;-62
2021/12/19 15:02:43;;;;;;;8.30;3.80;;;;;;;;;;4996739;28;20180;-62
2021/12/19 15:05:10;;;;;;;5.23;4.20;;;;;;;;;;4996710;28;20184;-62
2021/12/19 15:07:42;;;;;;;7.53;5.10;;;;;;;;;;4996471;28;20173;-62
2021/12/19 15:10:08;;;;;;;8.23;4.93;;;;;;;;;;4996758;28;20193;-62
2021/12/19 15:12:34;;;;;;;7.63;4.50;;;;;;;;;;4996205;28;20263;-62
2021/12/19 15:15:00;;;;;;;8.03;4.20;;;;;;;;;;4995915;28;20204;-63
2021/12/19 15:17:26;;;;;;;9.03;6.60;;;;;;;;;;4995493;28;20266;-62
2021/12/19 15:19:52;;;;;;;6.40;4.63;;;;;;;;;;4996783;28;20173;-63
2021/12/19 15:22:18;;;;;;;8.37;4.53;;;;;;;;;;4996616;28;20267;-63
2021/12/19 15:24:44;;;;;;;5.53;4.00;;;;;;;;;;4996457;28;20187;-63
2021/12/19 15:27:10;;;;;;;9.80;5.07;;;;;;;;;;4996127;28;20266;-63
2021/12/19 15:29:36;;;;;;;4.93;4.03;;;;;;;;;;4995240;28;20213;-63
2021/12/19 15:32:03;;;;;;;8.40;4.30;;;;;;;;;;4996646;28;20177;-61
2021/12/19 15:34:29;;;;;;;5.30;3.90;;;;;;;;;;4997248;28;20176;-64